Time;durP1;ratioP1;P1;durP2;ratioP2;P2;SDS_P1;SDS_P2;PMS_P1;PMS_P2;Temp;Humidity;BMP_temperature;BMP_pressure;BME280_temperature;BME280_humidity;BME280_pressure;Samples;Min_cycle;Max_cycle;Signal;HPM_P1;HPM_P2
2022/01/19 00:01:09;;;;;;;23.77;19.10;;;5.70;99.90;;;5.98;92.00;103176.56;5071739;28;20045;-60
2022/01/19 00:03:38;;;;;;;75.97;20.27;;;5.80;99.90;;;6.04;91.98;103161.13;5071629;28;20091;-60
2022/01/19 00:06:08;;;;;;;51.37;20.33;;;5.80;99.90;;;5.81;90.87;103148.50;5071341;28;20062;-59
2022/01/19 00:08:37;;;;;;;50.43;19.10;;;5.70;99.90;;;5.27;89.84;103137.75;5071471;28;20049;-59
2022/01/19 00:11:07;;;;;;;21.85;17.00;;;5.20;99.90;;;5.09;90.32;103135.03;5087021;28;20045;-60
2022/01/19 00:13:37;;;;;;;22.63;17.33;;;4.90;99.90;;;5.24;91.03;103140.22;5071134;28;20075;-59
2022/01/19 00:16:06;;;;;;;42.47;18.17;;;4.90;99.90;;;5.19;90.69;103133.81;5071776;28;20067;-60
2022/01/19 00:18:36;;;;;;;31.93;17.73;;;5.00;99.90;;;5.11;91.04;103143.00;5071189;28;20169;-59
2022/01/19 00:21:05;;;;;;;27.30;17.43;;;4.90;99.90;;;4.90;90.98;103137.47;5071184;28;20197;-59
2022/01/19 00:23:33;;;;;;;39.83;19.20;;;4.80;99.90;;;5.02;91.59;103139.88;5071111;28;20048;-59
2022/01/19 00:26:03;;;;;;;27.40;17.40;;;4.80;99.90;;;4.97;91.65;103139.66;5071394;28;20113;-60
2022/01/19 00:28:32;;;;;;;34.78;17.08;;;4.80;99.90;;;4.75;90.83;103130.50;5071043;28;20052;-60
2022/01/19 00:31:01;;;;;;;28.37;17.23;;;4.70;99.90;;;4.32;90.00;103119.31;5071206;28;20088;-60
2022/01/19 00:33:30;;;;;;;29.97;16.77;;;4.30;99.90;;;4.08;90.89;103111.00;5071299;28;20462;-59
2022/01/19 00:35:58;;;;;;;19.33;17.23;;;3.90;99.90;;;4.34;91.84;103095.03;5071166;28;20045;-59
2022/01/19 00:38:26;;;;;;;22.27;17.77;;;4.10;99.90;;;4.42;91.48;103071.88;5071299;28;20048;-60
2022/01/19 00:40:57;;;;;;;25.37;18.13;;;4.20;99.90;;;4.49;91.56;103060.94;5071279;28;20178;-60
2022/01/19 00:43:27;;;;;;;20.03;17.53;;;4.30;99.90;;;4.41;90.50;103055.25;5071202;28;20411;-60
2022/01/19 00:45:56;;;;;;;22.92;18.42;;;4.30;99.90;;;4.37;90.28;103037.59;5071238;28;20045;-60
2022/01/19 00:48:27;;;;;;;20.87;17.37;;;4.20;99.90;;;4.43;90.23;103034.41;5071656;28;20050;-60
2022/01/19 00:50:57;;;;;;;19.87;17.77;;;4.30;99.90;;;4.40;89.91;103032.50;5074482;28;20036;-59
2022/01/19 00:53:25;;;;;;;20.07;17.87;;;4.30;99.90;;;4.62;90.82;103044.16;5073374;28;20076;-60
2022/01/19 00:55:54;;;;;;;20.00;17.33;;;4.40;99.90;;;4.60;90.04;103051.94;5073269;28;20402;-60
2022/01/19 00:58:22;;;;;;;19.70;17.57;;;4.40;99.90;;;4.75;90.40;103062.34;5073276;28;20490;-60
2022/01/19 01:00:52;;;;;;;20.97;16.93;;;4.60;99.90;;;4.73;90.00;103061.34;5074604;28;20383;-59
2022/01/19 01:03:21;;;;;;;19.23;17.15;;;4.60;99.90;;;4.74;89.35;103063.16;5074393;28;20044;-60
2022/01/19 01:05:49;;;;;;;18.83;16.83;;;4.50;99.90;;;4.78;88.83;103057.28;5073178;28;20127;-59
2022/01/19 01:08:17;;;;;;;19.17;16.53;;;4.60;99.90;;;4.84;89.28;103047.13;5074541;28;20123;-60
2022/01/19 01:10:46;;;;;;;18.43;16.43;;;4.70;99.90;;;4.82;88.62;103030.41;5074303;28;20048;-59
2022/01/19 01:13:22;;;;;;;18.90;16.90;;;4.60;99.90;;;4.36;87.66;103020.03;5073392;28;20072;-59
2022/01/19 01:16:02;;;;;;;18.33;16.33;;;4.30;99.90;;;4.22;88.73;103014.88;5074794;28;20497;-60
2022/01/19 01:18:33;;;;;;;17.95;15.05;;;4.10;99.90;;;3.95;88.81;103003.72;5073132;28;20489;-60
2022/01/19 01:21:04;;;;;;;18.53;15.80;;;3.80;99.90;;;4.08;89.47;102985.31;5074186;28;20044;-59
2022/01/19 01:23:35;;;;;;;17.40;15.53;;;3.90;99.90;;;4.24;89.37;102980.06;5072999;28;20568;-59
2022/01/19 01:26:07;;;;;;;17.53;15.67;;;4.00;99.90;;;4.40;89.20;102968.72;5089929;28;20545;-59
2022/01/19 01:28:36;;;;;;;19.10;16.70;;;4.20;99.90;;;4.47;89.01;102973.47;5072960;28;20049;-59
2022/01/19 01:31:07;;;;;;;19.43;17.30;;;4.30;99.90;;;4.52;88.41;102966.75;5074310;28;20126;-60
2022/01/19 01:33:36;;;;;;;20.33;17.40;;;4.40;99.90;;;4.50;88.50;102969.31;5089826;28;20048;-59
2022/01/19 01:36:06;;;;;;;20.37;16.40;;;4.40;99.90;;;4.49;88.63;102956.13;5072890;28;20056;-59
2022/01/19 01:38:37;;;;;;;18.67;16.47;;;4.40;99.90;;;4.39;88.70;102953.81;5074414;28;20134;-60
2022/01/19 01:41:14;;;;;;;18.90;16.90;;;4.30;99.90;;;4.36;88.53;102946.69;5073021;28;20048;-59
2022/01/19 01:43:53;;;;;;;19.52;14.40;;;4.20;99.90;;;4.21;87.77;102930.16;5072675;28;20055;-59
2022/01/19 01:46:34;;;;;;;19.77;16.23;;;4.10;99.90;;;3.48;87.84;102916.44;5072590;28;20051;-59
2022/01/19 01:49:04;;;;;;;17.17;15.43;;;3.50;99.90;;;2.95;88.80;102870.59;5072780;28;20512;-59
2022/01/19 01:54:18;;;;;;;16.60;14.93;;;3.00;99.90;;;3.49;90.27;102931.28;5072483;28;20139;-59
2022/01/19 01:56:47;;;;;;;17.83;15.93;;;3.20;99.90;;;3.58;90.78;102922.25;5072262;28;20036;-59
2022/01/19 01:59:16;;;;;;;19.43;17.10;;;3.40;99.90;;;3.67;90.38;102917.56;5071888;28;20052;-59
2022/01/19 02:01:54;;;;;;;23.67;18.27;;;3.50;99.90;;;3.43;91.39;102915.25;5089199;28;20056;-59
2022/01/19 02:04:23;;;;;;;29.60;20.20;;;3.40;99.90;;;3.54;92.85;102908.94;5071965;28;20049;-59
2022/01/19 02:07:25;;;;;;;22.60;18.15;;;3.30;99.90;;;3.80;93.48;102903.41;5072120;28;20123;-60
2022/01/19 02:10:00;;;;;;;26.30;20.40;;;3.50;99.90;;;3.98;92.84;102909.69;5072267;28;20052;-59
2022/01/19 02:23:46;;;;;;;31.13;22.40;;;4.80;99.90;;;5.11;91.65;102894.72;5071841;28;20083;-59
2022/01/19 02:26:20;;;;;;;38.67;24.13;;;5.00;99.90;;;5.29;91.22;102881.63;5088575;28;20059;-60
2022/01/19 02:29:04;;;;;;;33.77;23.03;;;5.10;99.90;;;5.37;90.71;102878.56;5071664;28;20052;-59
2022/01/19 02:36:34;;;;;;;28.47;20.70;;;5.20;99.90;;;5.41;90.09;102875.25;5088466;28;20508;-60
2022/01/19 02:40:25;;;;;;;28.50;20.83;;;5.40;99.90;;;5.50;89.13;102869.53;5071554;28;20295;-59
2022/01/19 02:43:08;;;;;;;29.92;20.80;;;5.40;99.90;;;5.59;88.96;102859.50;5071476;28;20519;-59
2022/01/19 02:51:11;;;;;;;26.83;19.20;;;5.60;99.90;;;5.70;88.10;102838.97;5072697;28;20052;-60
2022/01/19 02:53:41;;;;;;;22.40;17.60;;;5.50;99.90;;;5.72;88.03;102824.19;5072660;28;20050;-59
2022/01/19 02:56:14;;;;;;;24.13;17.77;;;5.50;99.90;;;5.78;88.11;102814.91;5072871;28;20490;-59
2022/01/19 02:58:47;;;;;;;37.47;24.47;;;5.60;99.90;;;5.93;88.20;102797.25;5072766;28;20048;-59
2022/01/19 03:09:40;;;;;;;26.20;17.57;;;5.80;99.90;;;5.62;85.49;102762.50;5071027;28;20406;-59
2022/01/19 03:12:10;;;;;;;23.42;17.17;;;5.40;99.90;;;5.14;85.67;102750.63;5087098;28;20139;-60
2022/01/19 03:14:40;;;;;;;20.67;16.17;;;5.20;99.90;;;5.13;86.35;102758.44;5070671;28;20498;-59
2022/01/19 03:17:11;;;;;;;31.42;21.70;;;5.00;99.90;;;5.24;87.17;102760.75;5070768;28;20136;-60
2022/01/19 03:19:41;;;;;;;41.43;22.90;;;5.10;99.90;;;5.23;87.34;102751.06;5072222;28;20437;-60
2022/01/19 03:22:10;;;;;;;27.33;18.02;;;5.00;99.90;;;5.30;88.11;102747.88;5070743;28;20090;-59
2022/01/19 03:24:48;;;;;;;31.70;21.73;;;5.10;99.90;;;5.21;87.60;102750.06;5072328;28;20068;-60
2022/01/19 03:27:17;;;;;;;34.10;21.43;;;5.10;99.90;;;5.35;88.01;102751.63;5071812;28;20384;-59
2022/01/19 03:29:49;;;;;;;29.40;19.63;;;5.20;99.90;;;5.40;87.84;102757.97;5071996;28;20401;-59
2022/01/19 03:32:17;;;;;;;28.93;20.30;;;5.20;99.90;;;5.36;87.17;102761.28;5071910;28;20036;-59
2022/01/19 03:34:46;;;;;;;29.87;20.57;;;5.20;99.90;;;5.41;87.65;102741.44;5070459;28;20040;-60
2022/01/19 03:37:15;;;;;;;65.03;34.77;;;5.20;99.90;;;5.71;87.87;102741.91;5070518;28;20080;-60
2022/01/19 03:39:45;;;;;;;48.20;28.87;;;5.50;99.90;;;5.89;88.57;102740.16;5070305;28;20056;-60
2022/01/19 03:42:13;;;;;;;51.83;31.88;;;5.60;99.90;;;6.07;88.42;102738.34;5087148;28;20147;-60
2022/01/19 03:44:43;;;;;;;59.63;32.63;;;5.80;99.90;;;6.20;88.26;102745.00;5070311;28;20067;-60
2022/01/19 03:47:11;;;;;;;45.27;28.33;;;6.00;99.90;;;6.17;87.79;102744.91;5070264;28;20144;-59
2022/01/19 03:49:40;;;;;;;46.17;27.07;;;6.10;99.90;;;6.19;87.55;102749.34;5070264;28;20319;-60
2022/01/19 03:52:09;;;;;;;33.30;22.57;;;6.00;99.90;;;6.02;87.49;102745.09;5070020;28;20575;-60
2022/01/19 03:54:41;;;;;;;30.02;21.77;;;5.90;99.90;;;5.62;86.33;102725.75;5070221;28;20056;-60
2022/01/19 03:57:11;;;;;;;36.10;23.20;;;5.70;99.90;;;5.85;86.66;102746.09;5070216;28;20498;-60
2022/01/19 03:59:40;;;;;;;34.50;22.50;;;5.70;99.90;;;5.93;87.42;102742.09;5071753;28;20138;-60
2022/01/19 04:02:09;;;;;;;36.87;23.97;;;5.70;99.90;;;6.06;87.03;102743.50;5086826;28;20044;-60
2022/01/19 04:04:42;;;;;;;41.20;25.40;;;5.80;99.90;;;5.79;87.44;102709.03;5070446;28;20056;-60
2022/01/19 04:07:32;;;;;;;56.07;32.60;;;5.70;99.90;;;6.06;88.46;102731.28;5070297;28;20143;-60
2022/01/19 04:10:00;;;;;;;61.00;35.10;;;5.80;99.90;;;6.27;88.93;102726.06;5071646;28;20744;-59
2022/01/19 04:12:44;;;;;;;68.80;37.30;;;6.00;99.90;;;6.44;88.71;102721.50;5070200;28;20053;-60
2022/01/19 04:15:19;;;;;;;70.22;38.30;;;6.20;99.90;;;6.62;88.76;102719.66;5070196;28;20084;-59
2022/01/19 04:17:51;;;;;;;62.90;36.10;;;6.40;99.90;;;6.70;88.27;102739.25;5070180;28;20167;-60
2022/01/19 04:20:23;;;;;;;64.53;36.33;;;6.50;99.90;;;6.45;89.33;102718.03;5070327;28;20048;-60
2022/01/19 04:22:56;;;;;;;58.30;33.72;;;6.40;99.90;;;6.36;89.61;102710.69;5072173;28;20064;-60
2022/01/19 04:25:25;;;;;;;57.30;33.03;;;6.30;99.90;;;6.41;89.58;102719.66;5075605;28;20033;-60
2022/01/19 04:27:55;;;;;;;54.53;31.33;;;6.30;99.90;;;6.71;89.36;102717.41;5074205;28;20045;-60
2022/01/19 04:30:27;;;;;;;55.50;30.35;;;6.50;99.90;;;6.73;88.42;102729.78;5075717;28;20044;-59
2022/01/19 04:33:06;;;;;;;47.73;29.03;;;6.50;99.90;;;6.57;89.07;102727.34;5074469;28;20054;-60
2022/01/19 04:35:46;;;;;;;46.58;28.17;;;6.40;99.90;;;6.57;88.94;102716.84;5074078;28;20040;-60
2022/01/19 04:44:26;;;;;;;42.37;27.00;;;6.30;99.90;;;6.66;87.52;102690.03;5073967;28;20140;-60
2022/01/19 05:04:02;;;;;;;57.42;31.55;;;6.50;99.90;;;6.68;87.41;102634.03;5074653;28;20044;-60
2022/01/19 05:06:43;;;;;;;49.38;29.33;;;6.60;99.90;;;6.92;87.10;102665.66;5073176;28;20056;-60
2022/01/19 05:09:25;;;;;;;53.33;32.00;;;6.70;99.90;;;6.93;87.23;102663.06;5073163;28;20181;-60
2022/01/19 05:14:40;;;;;;;57.22;33.58;;;6.80;99.90;;;7.05;87.01;102652.13;5072735;28;20072;-60
2022/01/19 05:17:11;;;;;;;59.45;33.88;;;6.80;99.90;;;7.08;87.07;102652.25;5073017;28;20041;-60
2022/01/19 05:19:40;;;;;;;65.70;35.63;;;6.90;99.90;;;7.17;86.84;102655.25;5089823;28;20076;-60
2022/01/19 05:22:09;;;;;;;59.30;34.55;;;7.00;99.90;;;7.15;86.25;102646.38;5072900;28;20429;-60
2022/01/19 05:24:51;;;;;;;62.92;35.75;;;7.00;99.90;;;7.20;86.45;102645.72;5073027;28;20066;-60
2022/01/19 05:27:46;;;;;;;61.63;34.97;;;7.00;99.90;;;7.26;86.41;102639.78;5072763;28;20147;-60
2022/01/19 05:30:17;;;;;;;64.43;35.70;;;7.00;99.90;;;7.30;86.32;102641.69;5072549;28;20048;-60
2022/01/19 05:32:48;;;;;;;62.22;36.63;;;7.10;99.90;;;7.32;86.01;102636.50;5072872;28;20193;-60
2022/01/19 05:35:17;;;;;;;64.88;36.50;;;7.20;99.90;;;7.38;86.31;102642.88;5088692;28;20114;-60
2022/01/19 05:38:06;;;;;;;68.75;35.28;;;7.20;99.90;;;7.40;86.07;102633.28;5074131;28;20040;-60
2022/01/19 05:40:41;;;;;;;70.90;37.25;;;7.20;99.90;;;7.37;86.05;102625.31;5074064;28;20045;-60
2022/01/19 05:43:11;;;;;;;71.18;38.42;;;7.20;99.90;;;7.40;86.35;102624.50;5089509;28;20532;-60
2022/01/19 05:45:39;;;;;;;63.50;35.75;;;7.20;99.90;;;7.39;86.51;102615.72;5072686;28;20410;-60
2022/01/19 05:48:16;;;;;;;65.47;36.53;;;7.20;99.90;;;7.41;86.33;102615.78;5074010;28;20060;-60
2022/01/19 05:50:49;;;;;;;65.90;35.90;;;7.20;99.90;;;7.43;86.34;102611.47;5073009;28;20076;-60
2022/01/19 05:53:21;;;;;;;63.90;36.80;;;7.30;99.90;;;7.43;86.87;102593.94;5072963;28;20051;-60
2022/01/19 05:55:50;;;;;;;67.38;36.28;;;7.30;99.90;;;7.46;86.87;102594.03;5072436;28;20520;-60
2022/01/19 05:58:19;;;;;;;68.15;36.05;;;7.30;99.90;;;7.50;86.71;102585.41;5072194;28;20055;-60
2022/01/19 06:00:51;;;;;;;69.45;37.08;;;7.30;99.90;;;7.49;86.80;102591.50;5072323;28;20427;-60
2022/01/19 06:03:21;;;;;;;73.82;37.97;;;7.30;99.90;;;7.47;87.05;102577.38;5071946;28;20061;-60
2022/01/19 06:06:05;;;;;;;71.57;37.67;;;7.30;99.90;;;7.50;87.51;102569.59;5072200;28;20040;-60
2022/01/19 06:09:01;;;;;;;71.40;39.10;;;7.30;99.90;;;7.52;87.86;102567.94;5072760;28;20528;-60
2022/01/19 06:11:32;;;;;;;72.35;38.80;;;7.30;99.90;;;7.54;88.10;102558.34;5072059;28;20052;-60
2022/01/19 06:14:03;;;;;;;77.60;39.15;;;7.30;99.90;;;7.52;87.91;102552.13;5071818;28;20135;-60
2022/01/19 06:16:31;;;;;;;71.05;38.95;;;7.40;99.90;;;7.58;87.84;102554.06;5088850;28;20055;-60
2022/01/19 06:19:01;;;;;;;76.38;40.38;;;7.40;99.90;;;7.60;88.14;102552.41;5088670;28;20053;-60
2022/01/19 06:21:30;;;;;;;82.43;42.60;;;7.40;99.90;;;7.65;88.19;102546.44;5071818;28;20787;-60
2022/01/19 06:23:59;;;;;;;75.22;42.65;;;7.50;99.90;;;7.69;87.94;102543.06;5071728;28;20302;-60
2022/01/19 06:26:27;;;;;;;81.65;43.05;;;7.50;99.90;;;7.69;87.91;102540.44;5071708;28;20048;-60
2022/01/19 06:28:56;;;;;;;79.82;43.08;;;7.50;99.90;;;7.69;88.37;102527.25;5071619;28;20049;-60
2022/01/19 06:31:24;;;;;;;84.18;44.38;;;7.50;99.90;;;7.67;87.71;102521.06;5072854;28;20052;-60
2022/01/19 06:33:56;;;;;;;80.85;44.17;;;7.50;99.90;;;7.77;87.60;102525.78;5071972;28;20420;-60
2022/01/19 06:36:36;;;;;;;81.07;44.70;;;7.60;99.90;;;7.77;87.94;102516.97;5071541;28;20051;-60
2022/01/19 06:39:10;;;;;;;82.55;45.47;;;7.60;99.90;;;7.71;87.96;102490.44;5072723;28;20056;-60
2022/01/19 06:41:46;;;;;;;85.43;46.10;;;7.60;99.90;;;7.81;87.56;102514.50;5072809;28;20044;-60
2022/01/19 06:44:16;;;;;;;90.60;46.65;;;7.60;99.90;;;7.77;88.15;102515.25;5087813;28;20055;-60
2022/01/19 06:46:45;;;;;;;91.20;46.70;;;7.60;99.90;;;7.79;87.85;102513.56;5070259;28;20053;-60
2022/01/19 06:49:14;;;;;;;89.47;47.13;;;7.60;99.90;;;7.79;88.03;102510.94;5071266;28;20490;-60
2022/01/19 06:51:44;;;;;;;87.30;47.78;;;7.60;99.90;;;7.60;88.13;102478.66;5071165;28;20123;-60
2022/01/19 06:54:13;;;;;;;92.60;47.53;;;7.60;99.90;;;7.77;88.08;102503.81;5071180;28;20110;-60
2022/01/19 06:56:42;;;;;;;91.40;47.63;;;7.60;99.90;;;7.75;88.61;102503.78;5071039;28;20078;-60
2022/01/19 06:59:24;;;;;;;88.20;46.63;;;7.50;99.90;;;7.71;88.55;102503.59;5070719;28;20070;-60
2022/01/19 07:02:07;;;;;;;91.25;49.60;;;7.50;99.90;;;7.59;88.68;102493.56;5087966;28;20049;-60
2022/01/19 07:04:56;;;;;;;92.18;48.35;;;7.40;99.90;;;7.56;88.93;102477.66;5070742;28;20595;-60
2022/01/19 07:07:42;;;;;;;89.70;48.40;;;7.40;99.90;;;7.58;89.07;102493.50;5070962;28;20059;-60
2022/01/19 07:10:12;;;;;;;89.00;49.28;;;7.40;99.90;;;7.56;89.48;102497.84;5071195;28;20420;-60
2022/01/19 07:12:41;;;;;;;93.80;49.65;;;7.30;99.90;;;7.57;89.38;102489.97;5070927;28;20099;-60
2022/01/19 07:15:10;;;;;;;94.15;50.40;;;7.30;99.90;;;7.55;89.45;102490.78;5070585;28;20118;-60
2022/01/19 07:17:39;;;;;;;93.78;50.03;;;7.30;99.90;;;7.50;89.86;102481.81;5070856;28;20056;-60
2022/01/19 07:20:10;;;;;;;91.20;51.15;;;7.30;99.90;;;7.52;89.83;102480.13;5070714;28;20518;-60
2022/01/19 07:22:39;;;;;;;;;;;7.30;99.90;;;7.53;89.87;102480.19;5071430;28;20739;-60
2022/01/19 07:25:11;;;;;;;97.40;50.45;;;7.30;99.90;;;6.89;89.91;102369.22;5070669;28;20392;-60
2022/01/19 07:27:39;;;;;;;97.53;49.28;;;7.30;99.90;;;7.49;90.10;102467.75;5070524;28;20133;-60
2022/01/19 07:30:10;;;;;;;99.78;51.67;;;7.30;99.90;;;7.50;90.33;102466.94;5071989;28;20102;-60
2022/01/19 07:32:39;;;;;;;95.97;50.83;;;7.30;99.90;;;7.52;90.19;102470.50;5070345;28;20056;-60
2022/01/19 07:35:10;;;;;;;89.10;50.80;;;7.30;99.90;;;7.51;90.11;102473.97;5087232;28;20040;-60
2022/01/19 07:37:39;;;;;;;94.95;51.38;;;7.30;99.90;;;7.60;89.91;102476.94;5070214;28;20107;-60
2022/01/19 07:40:12;;;;;;;95.50;51.60;;;7.40;99.90;;;7.59;90.23;102477.75;5070218;28;20044;-60
2022/01/19 07:42:41;;;;;;;100.07;51.85;;;7.40;99.90;;;7.62;89.92;102479.59;5070241;28;20468;-60
2022/01/19 07:45:10;;;;;;;94.10;51.95;;;7.40;99.90;;;7.69;90.15;102471.06;5071653;28;20577;-60
2022/01/19 07:47:57;;;;;;;88.78;49.55;;;7.40;99.90;;;7.70;89.97;102467.59;5071430;28;20178;-60
2022/01/19 07:50:49;;;;;;;93.60;50.08;;;7.40;99.90;;;7.71;89.44;102465.00;5070801;28;20362;-60
2022/01/19 07:53:50;;;;;;;;;;;7.50;99.90;;;7.79;89.38;102457.34;5070599;28;20440;-60
2022/01/19 07:56:35;;;;;;;92.35;48.33;;;7.60;99.90;;;7.81;89.13;102458.28;5070070;28;20381;-60
2022/01/19 07:59:32;;;;;;;88.85;49.33;;;7.60;99.90;;;7.82;88.98;102447.81;5069066;28;20056;-60
2022/01/19 08:02:04;;;;;;;87.05;49.00;;;7.60;99.90;;;7.83;88.73;102439.06;5070269;28;20072;-60
2022/01/19 08:05:05;;;;;;;92.40;49.45;;;7.60;99.90;;;7.86;88.62;102438.25;5057650;28;20057;-60
2022/01/19 08:07:35;;;;;;;84.50;48.75;;;7.60;99.90;;;7.82;88.58;102431.13;5070136;28;20148;-60
2022/01/19 08:10:06;;;;;;;84.68;49.15;;;7.60;99.90;;;7.66;88.71;102398.13;5069951;28;20494;-60
2022/01/19 08:12:37;;;;;;;88.28;50.35;;;7.60;99.90;;;7.81;88.45;102431.97;5069988;28;20055;-60
2022/01/19 08:15:07;;;;;;;88.35;49.83;;;7.60;99.90;;;7.83;88.69;102414.47;5069708;28;20056;-60
2022/01/19 08:17:37;;;;;;;86.93;49.63;;;7.60;99.90;;;7.79;88.49;102413.47;5086592;28;20139;-61
2022/01/19 08:20:08;;;;;;;92.40;50.13;;;7.60;99.90;;;7.82;88.69;102421.47;5069879;28;20045;-60
2022/01/19 08:22:36;;;;;;;91.93;49.40;;;7.60;99.90;;;7.85;88.44;102413.69;5070020;28;20081;-60
2022/01/19 08:25:26;;;;;;;84.55;49.80;;;7.60;99.90;;;7.88;88.44;102413.75;5070657;28;20064;-59
2022/01/19 08:27:56;;;;;;;82.22;48.45;;;7.60;99.90;;;7.88;88.13;102411.13;5070199;28;20056;-59
2022/01/19 08:30:33;;;;;;;85.55;48.33;;;7.60;99.90;;;7.86;87.96;102412.81;5069634;28;20061;-60
2022/01/19 08:33:01;;;;;;;87.78;49.80;;;7.60;99.90;;;7.89;88.11;102407.66;5070062;28;20041;-60
2022/01/19 08:35:38;;;;;;;88.15;49.65;;;7.70;99.90;;;7.85;87.93;102412.78;5087025;28;20078;-60
2022/01/19 08:38:25;;;;;;;90.03;49.30;;;7.60;99.90;;;7.89;88.12;102412.03;5071430;28;20079;-60
2022/01/19 08:41:10;;;;;;;84.40;48.67;;;7.60;99.90;;;7.70;88.11;102383.31;5069705;28;20049;-60
2022/01/19 08:43:42;;;;;;;87.55;47.22;;;7.70;99.90;;;7.90;88.02;102417.34;5070024;28;20084;-59
2022/01/19 08:46:10;;;;;;;88.07;49.53;;;7.70;99.90;;;7.89;88.17;102410.28;5069998;28;20114;-60
2022/01/19 08:49:17;;;;;;;83.10;47.22;;;7.60;99.90;;;7.74;88.35;102407.16;5068663;28;20139;-59
2022/01/19 08:52:08;;;;;;;;;;;7.60;99.90;;;7.70;88.77;102401.75;5069005;28;20076;-60
2022/01/19 08:54:42;;;;;;;98.05;49.08;;;7.50;99.90;;;7.66;88.90;102395.50;5062681;28;19920;-60
2022/01/19 08:57:12;;;;;;;95.60;49.58;;;7.50;99.90;;;7.70;88.95;102391.22;5086799;28;20056;-61
2022/01/19 08:59:42;;;;;;;89.60;49.40;;;7.50;99.90;;;7.70;89.24;102378.06;5071442;28;20098;-61
2022/01/19 09:02:11;;;;;;;86.22;48.25;;;7.50;99.90;;;7.60;89.37;102381.25;5071320;28;20109;-61
2022/01/19 09:04:40;;;;;;;85.55;48.75;;;7.50;99.90;;;7.53;89.87;102374.00;5070775;28;20056;-60
2022/01/19 09:07:09;;;;;;;86.90;48.25;;;7.40;99.90;;;7.56;90.24;102376.72;5070989;28;20072;-61
2022/01/19 09:09:37;;;;;;;86.65;49.13;;;7.40;99.90;;;7.49;90.75;102380.88;5071958;28;20040;-61
2022/01/19 09:12:06;;;;;;;83.78;47.85;;;7.30;99.90;;;7.52;90.47;102357.31;5074198;28;20469;-61
2022/01/19 09:14:35;;;;;;;85.50;45.78;;;7.30;99.90;;;7.55;90.60;102360.00;5074175;28;20130;-61
2022/01/19 09:17:07;;;;;;;83.78;45.42;;;7.40;99.90;;;7.52;91.26;102357.31;5074198;28;20119;-61
2022/01/19 09:19:39;;;;;;;77.15;43.38;;;7.30;99.90;;;7.51;90.84;102352.88;5074354;28;20060;-61
2022/01/19 09:22:09;;;;;;;71.60;42.30;;;7.40;99.90;;;7.49;91.04;102344.03;5074077;28;20139;-60
2022/01/19 09:24:40;;;;;;;80.97;41.88;;;7.30;99.90;;;7.42;91.34;102323.63;5073981;28;20047;-60
2022/01/19 09:27:10;;;;;;;73.85;43.38;;;7.30;99.90;;;7.44;91.36;102323.66;5074221;28;20458;-60
2022/01/19 09:29:42;;;;;;;75.10;41.58;;;7.30;99.90;;;7.41;91.32;102328.84;5089458;28;20059;-59
2022/01/19 09:32:12;;;;;;;71.40;40.67;;;7.20;99.90;;;7.51;91.42;102334.44;5073804;28;20048;-60
2022/01/19 09:34:43;;;;;;;72.10;40.15;;;7.30;99.90;;;7.46;91.69;102333.41;5089439;28;20057;-60
2022/01/19 09:37:12;;;;;;;76.82;42.00;;;7.30;99.90;;;7.50;91.58;102335.28;5074095;28;20059;-60
2022/01/19 09:39:40;;;;;;;71.55;40.92;;;7.30;99.90;;;7.44;91.92;102324.56;5073729;28;20067;-59
2022/01/19 09:42:09;;;;;;;78.05;40.45;;;7.30;99.90;;;7.44;92.03;102321.94;5073822;28;20066;-60
2022/01/19 09:44:39;;;;;;;71.97;40.20;;;7.30;99.90;;;7.41;92.21;102316.59;5072490;28;20044;-60
2022/01/19 09:47:08;;;;;;;76.10;42.03;;;7.30;99.90;;;7.30;92.40;102316.22;5072414;28;20148;-60
2022/01/19 09:49:38;;;;;;;77.85;43.65;;;7.20;99.90;;;7.30;92.75;102328.50;5072366;28;20098;-60
2022/01/19 09:52:07;;;;;;;79.57;43.90;;;7.10;99.90;;;7.31;92.88;102327.66;5073794;28;20098;-60
2022/01/19 09:54:36;;;;;;;79.65;45.53;;;7.10;99.90;;;7.20;93.21;102326.44;5073460;28;20036;-60
2022/01/19 09:57:06;;;;;;;87.65;47.22;;;7.00;99.90;;;7.14;93.21;102342.88;5073686;28;20097;-60
2022/01/19 09:59:36;;;;;;;86.18;45.83;;;7.00;99.90;;;7.06;93.70;102335.59;5072220;28;20056;-60
2022/01/19 10:02:08;;;;;;;79.82;44.88;;;6.90;99.90;;;7.13;93.91;102353.38;5088969;28;20044;-60
2022/01/19 10:04:42;;;;;;;89.22;47.92;;;6.90;99.90;;;7.30;93.67;102352.19;5072110;28;20055;-61
2022/01/19 10:07:17;;;;;;;86.35;46.25;;;7.00;99.90;;;7.22;93.58;102356.28;5072205;28;20110;-60
2022/01/19 10:09:57;;;;;;;87.18;46.60;;;7.00;99.90;;;7.25;93.37;102344.16;5073279;28;20059;-60
2022/01/19 10:18:16;;;;;;;85.68;47.00;;;7.10;99.90;;;7.35;93.06;102333.91;5073179;28;20047;-61
2022/01/19 10:20:48;;;;;;;87.20;47.88;;;7.10;99.90;;;7.28;93.34;102327.53;5073017;28;20114;-61
2022/01/19 10:23:37;;;;;;;80.88;45.50;;;7.10;99.90;;;7.30;93.42;102324.13;5073039;28;20420;-61
2022/01/19 10:26:09;;;;;;;83.60;46.63;;;7.10;99.90;;;7.26;93.35;102318.72;5073092;28;20127;-61
2022/01/19 10:29:01;;;;;;;81.60;47.97;;;7.10;99.90;;;7.32;93.48;102308.38;5073207;28;20036;-61
2022/01/19 10:31:32;;;;;;;84.30;46.47;;;7.10;99.90;;;7.42;93.14;102313.09;5073076;28;20139;-61
2022/01/19 10:34:14;;;;;;;85.65;47.85;;;7.20;99.90;;;7.27;93.31;102305.63;5072882;28;20082;-65
2022/01/19 10:36:46;;;;;;;77.78;45.13;;;7.10;99.90;;;7.36;93.78;102302.38;5072834;28;20036;-60
2022/01/19 10:39:16;;;;;;;78.47;45.38;;;7.20;99.90;;;7.20;93.47;102274.69;5073128;28;20052;-60
2022/01/19 10:42:02;;;;;;;87.25;48.40;;;7.20;99.90;;;7.44;93.36;102303.50;5073014;28;20044;-59
2022/01/19 10:44:34;;;;;;;87.43;47.85;;;7.20;99.90;;;7.41;93.15;102271.84;5072702;28;20063;-60
2022/01/19 10:47:46;;;;;;;84.13;48.10;;;7.30;99.90;;;7.38;93.34;102295.41;5072644;28;20032;-59
2022/01/19 10:50:21;;;;;;;84.10;47.88;;;7.20;99.90;;;7.43;93.26;102275.41;5072786;28;20441;-59
2022/01/19 10:52:51;;;;;;;89.20;49.22;;;7.30;99.90;;;7.39;93.31;102272.63;5072573;28;20072;-60
2022/01/19 10:55:31;;;;;;;81.47;46.17;;;7.20;99.90;;;7.39;93.37;102265.63;5072674;28;20068;-61
2022/01/19 10:58:02;;;;;;;84.57;47.08;;;7.20;99.90;;;7.46;93.19;102269.34;5072238;28;20139;-60
2022/01/19 11:00:33;;;;;;;89.05;48.60;;;7.20;99.90;;;7.42;93.96;102264.81;5072150;28;20063;-61
2022/01/19 11:03:17;;;;;;;86.70;48.63;;;7.20;99.90;;;7.42;94.24;102249.94;5071008;28;20048;-60
2022/01/19 11:05:49;;;;;;;87.13;48.15;;;7.30;99.90;;;7.50;94.77;102240.53;5072195;28;20044;-61
2022/01/19 11:08:22;;;;;;;81.65;47.55;;;7.30;99.90;;;7.44;94.59;102234.16;5072077;28;20082;-61
2022/01/19 11:10:54;;;;;;;91.13;50.03;;;7.30;99.90;;;7.48;94.84;102242.22;5070863;28;20052;-61
2022/01/19 11:13:31;;;;;;;90.53;47.40;;;7.30;99.90;;;7.60;94.39;102241.69;5071872;28;20040;-60
2022/01/19 11:16:02;;;;;;;82.20;46.25;;;7.40;99.90;;;7.64;94.45;102236.56;5072177;28;20049;-59
2022/01/19 11:18:32;;;;;;;88.93;50.67;;;7.40;99.90;;;7.69;94.26;102227.03;5072365;28;20155;-59
2022/01/19 11:21:05;;;;;;;88.10;49.47;;;7.50;99.90;;;7.76;94.41;102228.13;5072213;28;20040;-59
2022/01/19 11:23:51;;;;;;;84.35;48.65;;;7.60;99.90;;;7.90;94.52;102222.38;5071848;28;20094;-59
2022/01/19 11:26:24;;;;;;;84.28;48.53;;;7.70;99.90;;;7.94;94.17;102203.19;5071788;28;20048;-59
2022/01/19 11:28:53;;;;;;;85.55;47.45;;;7.70;99.90;;;7.91;93.90;102205.75;5071622;28;20464;-59
2022/01/19 11:31:38;;;;;;;83.53;47.17;;;7.80;99.90;;;7.91;93.47;102197.84;5071666;28;20367;-59
2022/01/19 11:34:07;;;;;;;84.28;46.50;;;7.70;99.90;;;7.96;93.28;102196.22;5071455;28;20056;-59
2022/01/19 11:36:42;;;;;;;85.63;48.33;;;7.70;99.90;;;8.05;93.37;102188.56;5071649;28;20048;-59
2022/01/19 11:39:17;;;;;;;84.13;47.00;;;7.80;99.90;;;8.05;92.92;102182.41;5070437;28;20068;-59
2022/01/19 11:41:50;;;;;;;83.20;47.92;;;7.90;99.90;;;7.94;93.08;102176.84;5071779;28;20072;-61
2022/01/19 11:44:37;;;;;;;83.00;47.05;;;7.80;99.90;;;7.94;92.96;102171.56;5071615;28;20354;-61